Time;durP1;ratioP1;P1;durP2;ratioP2;P2;SDS_P1;SDS_P2;PMS_P1;PMS_P2;Temp;Humidity;BMP_temperature;BMP_pressure;BME280_temperature;BME280_humidity;BME280_pressure;Samples;Min_cycle;Max_cycle;Signal;HPM_P1;HPM_P2
2022/01/25 14:23:52;;;;;;;3.53;1.73;;;;;;;-141.38;100.00;59521.94;2621887;47;20177;-63
2022/01/25 14:26:29;;;;;;;2.23;1.53;;;;;;;-141.38;100.00;59521.94;2623297;54;20165;-63
2022/01/25 14:29:06;;;;;;;8.37;3.17;;;;;;;-141.38;100.00;59521.94;2619569;54;20233;-63
2022/01/25 14:31:43;;;;;;;5.47;2.33;;;;;;;-141.38;100.00;59521.94;2624461;54;20164;-62
2022/01/25 14:34:18;;;;;;;2.20;0.97;;;;;;;-141.38;100.00;59521.94;2625526;54;20157;-63
2022/01/25 14:36:49;;;;;;;5.93;3.30;;;;;;;-141.38;100.00;59521.94;2624488;47;20173;-63
2022/01/25 14:39:20;;;;;;;3.43;2.27;;;;;;;-141.38;100.00;59521.94;2625230;47;20217;-63
2022/01/25 14:41:51;;;;;;;2.17;1.83;;;;;;;-141.38;100.00;59521.94;2623522;54;20161;-63
2022/01/25 14:44:23;;;;;;;4.80;1.97;;;;;;;-141.38;100.00;59521.94;2619733;54;20157;-64
2022/01/25 14:46:54;;;;;;;18.83;3.57;;;;;;;-141.38;100.00;59521.94;2625199;47;20162;-64
2022/01/25 14:49:31;;;;;;;2.97;1.67;;;;;;;-141.38;100.00;59521.94;2625311;47;20698;-63
2022/01/25 14:52:04;;;;;;;1.07;0.80;;;;;;;-141.38;100.00;59521.94;2626087;39;20664;-63
2022/01/25 14:54:37;;;;;;;2.90;2.30;;;;;;;-141.38;100.00;59521.94;2625610;39;20574;-63
2022/01/25 14:57:12;;;;;;;1.93;1.00;;;;;;;-141.38;100.00;59521.94;2625703;54;20209;-63
2022/01/25 14:59:47;;;;;;;3.00;1.50;;;;;;;-141.38;100.00;59521.94;2624876;47;20229;-64
2022/01/25 15:02:20;;;;;;;2.33;1.53;;;;;;;-141.38;100.00;59521.94;2625387;47;20204;-63
2022/01/25 15:04:57;;;;;;;4.20;1.70;;;;;;;-141.38;100.00;59521.94;2625344;54;20150;-64
2022/01/25 15:07:30;;;;;;;2.07;1.83;;;;;;;-141.38;100.00;59521.94;2625126;47;20181;-64
2022/01/25 15:10:04;;;;;;;2.17;2.00;;;;;;;-141.38;100.00;59521.94;2625432;47;20157;-64
2022/01/25 15:12:41;;;;;;;3.40;2.73;;;;;;;-141.38;100.00;59521.94;2625046;47;20170;-63
2022/01/25 15:15:14;;;;;;;3.53;2.13;;;;;;;-141.38;100.00;59521.94;2625027;54;20163;-62
2022/01/25 15:17:46;;;;;;;3.80;2.67;;;;;;;-141.38;100.00;59521.94;2624031;51;20277;-62
2022/01/25 15:20:20;;;;;;;3.80;3.13;;;;;;;-141.38;100.00;59521.94;2622358;47;20168;-63
2022/01/25 15:22:50;;;;;;;4.03;2.87;;;;;;;-141.38;100.00;59521.94;2621336;47;20256;-63
2022/01/25 15:25:24;;;;;;;2.20;1.73;;;;;;;-141.38;100.00;59521.94;2619718;47;20689;-63
2022/01/25 15:27:55;;;;;;;7.50;4.10;;;;;;;-141.38;100.00;59521.94;2620419;47;20700;-63
2022/01/25 15:30:27;;;;;;;4.17;2.73;;;;;;;-141.38;100.00;59521.94;2623181;47;20172;-63
2022/01/25 15:32:58;;;;;;;4.37;2.90;;;;;;;-141.38;100.00;59521.94;2620493;54;20678;-63
2022/01/25 15:35:31;;;;;;;13.27;5.40;;;;;;;-141.38;100.00;59521.94;2625941;47;20225;-62
2022/01/25 15:38:02;;;;;;;6.83;2.77;;;;;;;-141.38;100.00;59521.94;2623795;47;20157;-63
2022/01/25 15:40:33;;;;;;;13.70;6.40;;;;;;;-141.38;100.00;59521.94;2628574;47;20238;-65
2022/01/25 15:43:07;;;;;;;4.00;2.80;;;;;;;-141.38;100.00;59521.94;2624304;46;20170;-63
2022/01/25 15:45:56;;;;;;;6.10;3.60;;;;;;;-141.38;100.00;59521.94;2620568;47;20169;-63
2022/01/25 15:48:26;;;;;;;7.27;4.00;;;;;;;-141.38;100.00;59521.94;2620686;47;20289;-64
2022/01/25 15:51:00;;;;;;;2.47;2.17;;;;;;;-141.38;100.00;59521.94;2625287;54;20163;-63
2022/01/25 15:53:31;;;;;;;3.73;2.13;;;;;;;-141.38;100.00;59521.94;2626048;39;20677;-63
2022/01/25 15:56:01;;;;;;;5.93;4.37;;;;;;;-141.38;100.00;59521.94;2625149;47;20254;-63
2022/01/25 15:58:31;;;;;;;7.43;2.60;;;;;;;-141.38;100.00;59521.94;2624870;47;20165;-63
2022/01/25 16:01:02;;;;;;;7.70;4.90;;;;;;;-141.38;100.00;59521.94;2622179;47;20157;-63
2022/01/25 16:03:33;;;;;;;2.03;1.63;;;;;;;-141.38;100.00;59521.94;2619174;54;20164;-64
2022/01/25 16:06:06;;;;;;;4.00;3.07;;;;;;;-141.38;100.00;59521.94;2619364;47;20502;-65
2022/01/25 16:08:38;;;;;;;3.50;2.40;;;;;;;-141.38;100.00;59521.94;2619622;47;20681;-64
2022/01/25 16:11:13;;;;;;;3.07;2.77;;;;;;;-141.38;100.00;59521.94;2619165;47;20669;-64
2022/01/25 16:13:44;;;;;;;6.63;4.93;;;;;;;-141.38;100.00;59521.94;2619329;47;20145;-63
2022/01/25 16:16:16;;;;;;;10.10;3.43;;;;;;;-141.38;100.00;59521.94;2620476;47;20203;-64
2022/01/25 16:18:50;;;;;;;3.50;3.20;;;;;;;-141.38;100.00;59521.94;2619168;47;20258;-64
2022/01/25 16:21:23;;;;;;;10.07;3.97;;;;;;;-141.38;100.00;59521.94;2620533;47;20162;-63
2022/01/25 16:23:53;;;;;;;13.50;6.13;;;;;;;-141.38;100.00;59521.94;2623756;47;20177;-63
2022/01/25 16:26:23;;;;;;;7.77;4.30;;;;;;;-141.38;100.00;59521.94;2620919;54;20165;-63
2022/01/25 16:28:54;;;;;;;8.27;4.40;;;;;;;-141.38;100.00;59521.94;2625303;47;20156;-63
2022/01/25 16:31:29;;;;;;;3.40;3.10;;;;;;;-141.38;100.00;59521.94;2624929;54;20197;-63
2022/01/25 16:34:00;;;;;;;4.27;3.17;;;;;;;-141.38;100.00;59521.94;2626030;47;20179;-64
2022/01/25 16:36:35;;;;;;;2.47;2.27;;;;;;;-141.38;100.00;59521.94;2625523;47;20685;-63
2022/01/25 16:39:06;;;;;;;3.60;3.20;;;;;;;-141.38;100.00;59521.94;2625229;47;20233;-64
2022/01/25 16:41:36;;;;;;;1.00;1.00;;;;;;;-141.38;100.00;59521.94;2625117;47;20208;-63
2022/01/25 16:44:07;;;;;;;7.10;4.13;;;;;;;-141.38;100.00;59521.94;2625053;47;20731;-63
2022/01/25 16:46:37;;;;;;;5.23;3.40;;;;;;;-141.38;100.00;59521.94;2624293;47;20161;-62
2022/01/25 16:49:08;;;;;;;6.87;3.73;;;;;;;-141.38;100.00;59521.94;2623611;47;20153;-64
2022/01/25 16:51:41;;;;;;;2.43;0.70;;;;;;;-141.38;100.00;59521.94;2618932;46;20165;-63
2022/01/25 16:54:11;;;;;;;3.63;3.13;;;;;;;-141.38;100.00;59521.94;2619467;47;20171;-64
2022/01/25 16:56:44;;;;;;;2.20;2.10;;;;;;;-141.38;100.00;59521.94;2624286;47;20157;-64
2022/01/25 16:59:19;;;;;;;3.37;2.30;;;;;;;-141.38;100.00;59521.94;2624371;47;20166;-64
2022/01/25 17:01:50;;;;;;;1.23;1.13;;;;;;;-141.38;100.00;59521.94;2624311;54;20217;-63
2022/01/25 17:04:21;;;;;;;9.97;3.03;;;;;;;-141.38;100.00;59521.94;2624299;47;20253;-63
2022/01/25 17:06:54;;;;;;;1.03;1.03;;;;;;;-141.38;100.00;59521.94;2618608;47;20168;-63
2022/01/25 17:09:24;;;;;;;6.23;3.73;;;;;;;-141.38;100.00;59521.94;2618312;47;20383;-63
2022/01/25 17:11:54;;;;;;;2.23;0.57;;;;;;;-141.38;100.00;59521.94;2620090;39;20574;-63
2022/01/25 17:14:25;;;;;;;5.43;1.37;;;;;;;-141.38;100.00;59521.94;2624036;47;20157;-63
2022/01/25 17:16:55;;;;;;;2.30;2.10;;;;;;;-141.38;100.00;59521.94;2623893;47;20205;-64
2022/01/25 17:19:27;;;;;;;1.73;1.63;;;;;;;-141.38;100.00;59521.94;2625600;47;20142;-64
2022/01/25 17:22:00;;;;;;;1.37;1.27;;;;;;;-141.38;100.00;59521.94;2624848;47;20165;-63
2022/01/25 17:24:30;;;;;;;4.83;3.10;;;;;;;-141.38;100.00;59521.94;2621803;54;20157;-63
2022/01/25 17:27:01;;;;;;;2.80;2.47;;;;;;;-141.38;100.00;59521.94;2620480;54;20157;-64
2022/01/25 17:29:31;;;;;;;5.67;2.10;;;;;;;-141.38;100.00;59521.94;2624325;47;20177;-64
2022/01/25 17:32:01;;;;;;;6.20;3.37;;;;;;;-141.38;100.00;59521.94;2625536;54;20259;-63
2022/01/25 17:34:31;;;;;;;2.83;1.97;;;;;;;-141.38;100.00;59521.94;2625190;39;20650;-64
2022/01/25 17:37:05;;;;;;;2.00;0.87;;;;;;;-141.38;100.00;59521.94;2624283;54;20253;-64
2022/01/25 17:39:35;;;;;;;2.50;2.30;;;;;;;-141.38;100.00;59521.94;2624102;47;20153;-65
2022/01/25 17:42:06;;;;;;;0.40;0.40;;;;;;;-141.38;100.00;59521.94;2623746;54;20161;-64
2022/01/25 17:44:37;;;;;;;2.03;1.83;;;;;;;-141.38;100.00;59521.94;2621530;47;20169;-65
2022/01/25 17:47:08;;;;;;;0.87;0.60;;;;;;;-141.38;100.00;59521.94;2619542;47;20161;-65
2022/01/25 17:49:39;;;;;;;0.63;0.63;;;;;;;-141.38;100.00;59521.94;2619403;47;20165;-64
2022/01/25 17:52:12;;;;;;;7.20;1.13;;;;;;;-141.38;100.00;59521.94;2622717;47;20781;-64
2022/01/25 17:54:42;;;;;;;1.93;1.83;;;;;;;-141.38;100.00;59521.94;2623963;47;20218;-64
2022/01/25 17:57:13;;;;;;;0.73;0.63;;;;;;;-141.38;100.00;59521.94;2623952;54;20157;-64
2022/01/25 17:59:43;;;;;;;4.23;3.83;;;;;;;-141.38;100.00;59521.94;2623781;47;20166;-64
2022/01/25 18:02:20;;;;;;;2.10;0.90;;;;;;;-141.38;100.00;59521.94;2618799;54;20206;-64
2022/01/25 18:04:51;;;;;;;3.40;1.40;;;;;;;-141.38;100.00;59521.94;2619150;39;20450;-65
2022/01/25 18:07:24;;;;;;;0.67;0.67;;;;;;;-141.38;100.00;59521.94;2623099;54;20162;-64
2022/01/25 18:09:55;;;;;;;2.13;0.60;;;;;;;-141.38;100.00;59521.94;2624246;51;20157;-63
2022/01/25 18:12:25;;;;;;;1.63;1.07;;;;;;;-141.38;100.00;59521.94;2619532;54;20205;-64
2022/01/25 18:14:56;;;;;;;1.70;0.97;;;;;;;-141.38;100.00;59521.94;2619184;47;20168;-64
2022/01/25 18:17:26;;;;;;;3.30;1.43;;;;;;;-141.38;100.00;59521.94;2618697;47;20756;-63
2022/01/25 18:19:56;;;;;;;6.03;3.03;;;;;;;-141.38;100.00;59521.94;2621854;47;20173;-63
2022/01/25 18:22:34;;;;;;;2.83;2.13;;;;;;;-141.38;100.00;59521.94;2619248;47;20169;-64
2022/01/25 18:25:08;;;;;;;6.97;4.20;;;;;;;-141.38;100.00;59521.94;2620016;47;20727;-64
2022/01/25 18:27:39;;;;;;;3.50;2.47;;;;;;;-141.38;100.00;59521.94;2625106;47;20705;-63
2022/01/25 18:30:10;;;;;;;4.30;3.07;;;;;;;-141.38;100.00;59521.94;2624143;47;20189;-63
2022/01/25 18:32:44;;;;;;;9.07;3.10;;;;;;;-141.38;100.00;59521.94;2621464;47;20162;-64
2022/01/25 18:35:18;;;;;;;12.23;6.03;;;;;;;-141.38;100.00;59521.94;2625393;54;20168;-64
2022/01/25 18:37:51;;;;;;;6.57;5.90;;;;;;;-141.38;100.00;59521.94;2623846;47;20171;-63
2022/01/25 18:40:21;;;;;;;9.90;2.13;;;;;;;-141.38;100.00;59521.94;2621568;47;20184;-64
2022/01/25 18:42:52;;;;;;;4.70;2.00;;;;;;;-141.38;100.00;59521.94;2625488;47;20272;-64
2022/01/25 18:45:22;;;;;;;2.70;1.20;;;;;;;-141.38;100.00;59521.94;2625439;47;20253;-64
2022/01/25 18:47:52;;;;;;;4.10;3.50;;;;;;;-141.38;100.00;59521.94;2625092;46;20176;-63
2022/01/25 18:50:23;;;;;;;5.87;3.17;;;;;;;-141.38;100.00;59521.94;2624719;47;20169;-63
2022/01/25 18:52:56;;;;;;;2.87;2.30;;;;;;;-141.38;100.00;59521.94;2624554;47;20716;-63
2022/01/25 18:55:26;;;;;;;7.47;4.67;;;;;;;-141.38;100.00;59521.94;2627325;39;20551;-63
2022/01/25 18:57:59;;;;;;;10.77;6.10;;;;;;;-141.38;100.00;59521.94;2624787;54;20729;-63
2022/01/25 19:00:30;;;;;;;18.13;8.47;;;;;;;-141.38;100.00;59521.94;2620564;47;20689;-63
2022/01/25 19:03:00;;;;;;;1.77;0.97;;;;;;;-141.38;100.00;59521.94;2625756;47;20176;-63
2022/01/25 19:05:31;;;;;;;3.03;1.03;;;;;;;-141.38;100.00;59521.94;2626334;54;20158;-64
2022/01/25 19:08:04;;;;;;;3.23;1.73;;;;;;;-141.38;100.00;59521.94;2622564;46;20161;-63
2022/01/25 19:10:34;;;;;;;15.50;2.83;;;;;;;-141.38;100.00;59521.94;2624402;47;20165;-64
2022/01/25 19:13:05;;;;;;;7.43;3.43;;;;;;;-141.38;100.00;59521.94;2619993;47;20169;-63
2022/01/25 19:15:35;;;;;;;4.70;3.53;;;;;;;-141.38;100.00;59521.94;2622634;47;20180;-64
2022/01/25 19:18:06;;;;;;;7.97;3.60;;;;;;;-141.38;100.00;59521.94;2623855;54;20216;-63
2022/01/25 19:20:36;;;;;;;3.30;2.97;;;;;;;-141.38;100.00;59521.94;2626149;47;20193;-64
2022/01/25 19:23:09;;;;;;;4.70;2.93;;;;;;;-141.38;100.00;59521.94;2627726;47;20170;-64
2022/01/25 19:25:39;;;;;;;5.20;3.53;;;;;;;-141.38;100.00;59521.94;2624839;47;20169;-64
2022/01/25 19:28:09;;;;;;;6.83;3.67;;;;;;;-141.38;100.00;59521.94;2624635;47;20213;-63
2022/01/25 19:30:41;;;;;;;8.30;6.33;;;;;;;-141.38;100.00;59521.94;2624272;47;20249;-63
2022/01/25 19:33:12;;;;;;;3.57;3.27;;;;;;;-141.38;100.00;59521.94;2624179;47;20686;-64
2022/01/25 19:35:44;;;;;;;5.73;3.30;;;;;;;-141.38;100.00;59521.94;2624383;54;20264;-64
2022/01/25 19:38:18;;;;;;;3.00;2.07;;;;;;;-141.38;100.00;59521.94;2623977;54;20197;-63
2022/01/25 19:40:52;;;;;;;2.10;1.87;;;;;;;-141.38;100.00;59521.94;2624253;47;20171;-64
2022/01/25 19:43:22;;;;;;;1.60;1.50;;;;;;;-141.38;100.00;59521.94;2624221;47;20250;-64
2022/01/25 19:45:53;;;;;;;2.37;2.27;;;;;;;-141.38;100.00;59521.94;2624194;47;20185;-64
2022/01/25 19:48:23;;;;;;;6.60;3.13;;;;;;;-141.38;100.00;59521.94;2623599;47;20169;-64
2022/01/25 19:50:53;;;;;;;3.90;3.40;;;;;;;-141.38;100.00;59521.94;2623816;47;20175;-63
2022/01/25 19:53:28;;;;;;;8.03;4.67;;;;;;;-141.38;100.00;59521.94;2624748;39;20529;-63
2022/01/25 19:56:00;;;;;;;9.00;3.60;;;;;;;-141.38;100.00;59521.94;2624343;54;20255;-63
2022/01/25 19:58:30;;;;;;;10.97;4.93;;;;;;;-141.38;100.00;59521.94;2624154;54;20165;-63
2022/01/25 20:01:01;;;;;;;11.07;4.97;;;;;;;-141.38;100.00;59521.94;2624139;47;20165;-63
2022/01/25 20:03:32;;;;;;;3.80;2.93;;;;;;;-141.38;100.00;59521.94;2625577;47;20180;-64
2022/01/25 20:06:02;;;;;;;7.37;3.27;;;;;;;-141.38;100.00;59521.94;2625273;47;20181;-63
2022/01/25 20:08:38;;;;;;;5.93;3.77;;;;;;;-141.38;100.00;59521.94;2621984;47;20164;-63
2022/01/25 20:11:09;;;;;;;6.43;3.23;;;;;;;-141.38;100.00;59521.94;2618754;47;20167;-63
2022/01/25 20:13:41;;;;;;;14.97;5.73;;;;;;;-141.38;100.00;59521.94;2618937;54;20153;-64
2022/01/25 20:16:11;;;;;;;6.37;3.93;;;;;;;-141.38;100.00;59521.94;2619162;39;20598;-63
2022/01/25 20:18:43;;;;;;;2.73;2.43;;;;;;;-141.38;100.00;59521.94;2618880;54;20253;-64
2022/01/25 20:21:17;;;;;;;2.13;1.87;;;;;;;-141.38;100.00;59521.94;2619696;46;20173;-64
2022/01/25 20:23:59;;;;;;;7.83;2.63;;;;;;;-141.38;100.00;59521.94;2623582;54;20165;-64
2022/01/25 20:26:34;;;;;;;7.47;3.63;;;;;;;-141.38;100.00;59521.94;2621985;54;20166;-65
2022/01/25 20:29:10;;;;;;;3.50;3.07;;;;;;;-141.38;100.00;59521.94;2619537;47;20237;-64
2022/01/25 20:31:40;;;;;;;8.27;4.37;;;;;;;-141.38;100.00;59521.94;2619864;47;20169;-64
2022/01/25 20:34:15;;;;;;;7.37;4.17;;;;;;;-141.38;100.00;59521.94;2619335;54;20165;-63
2022/01/25 20:36:45;;;;;;;7.17;4.33;;;;;;;-141.38;100.00;59521.94;2619081;47;20253;-64
2022/01/25 20:39:18;;;;;;;5.50;3.80;;;;;;;-141.38;100.00;59521.94;2618824;47;20700;-65
2022/01/25 20:41:51;;;;;;;7.03;2.27;;;;;;;-141.38;100.00;59521.94;2620175;47;20162;-66
2022/01/25 20:44:21;;;;;;;5.77;2.77;;;;;;;-141.38;100.00;59521.94;2618897;54;20177;-64
2022/01/25 20:46:52;;;;;;;3.47;2.40;;;;;;;-141.38;100.00;59521.94;2618659;47;20161;-63
2022/01/25 20:49:22;;;;;;;3.97;2.80;;;;;;;-141.38;100.00;59521.94;2620917;47;20161;-64
2022/01/25 20:51:53;;;;;;;4.97;2.90;;;;;;;-141.38;100.00;59521.94;2624781;54;20162;-65
2022/01/25 20:54:26;;;;;;;6.37;2.93;;;;;;;-141.38;100.00;59521.94;2627097;47;20175;-64
2022/01/25 20:56:56;;;;;;;9.80;5.07;;;;;;;-141.38;100.00;59521.94;2624848;47;20265;-63
2022/01/25 20:59:27;;;;;;;4.57;3.33;;;;;;;-141.38;100.00;59521.94;2626874;54;20157;-62
2022/01/25 21:01:59;;;;;;;3.50;3.10;;;;;;;-141.38;100.00;59521.94;2624405;54;20210;-64
2022/01/25 21:06:41;;;;;;;7.13;3.80;;;;;;;-141.38;100.00;59521.94;2624463;47;20168;-64
2022/01/25 21:07:31;;;;;;;5.57;2.97;;;;;;;-141.38;100.00;59521.94;2624174;47;20228;-65
2022/01/25 21:10:04;;;;;;;12.93;3.47;;;;;;;-141.38;100.00;59521.94;2627011;47;20213;-63
2022/01/25 21:12:35;;;;;;;3.33;3.00;;;;;;;-141.38;100.00;59521.94;2626318;47;20180;-63
2022/01/25 21:15:05;;;;;;;3.43;2.77;;;;;;;-141.38;100.00;59521.94;2624465;47;20158;-63
2022/01/25 21:17:38;;;;;;;3.80;3.23;;;;;;;-141.38;100.00;59521.94;2624007;47;20196;-64
2022/01/25 21:20:15;;;;;;;5.07;2.97;;;;;;;-141.38;100.00;59521.94;2623843;54;20164;-63
2022/01/25 21:22:45;;;;;;;7.07;3.13;;;;;;;-141.38;100.00;59521.94;2623212;47;20181;-63
2022/01/25 21:25:19;;;;;;;4.40;2.77;;;;;;;-141.38;100.00;59521.94;2623736;54;20172;-63
2022/01/25 21:27:49;;;;;;;8.70;3.10;;;;;;;-141.38;100.00;59521.94;2623599;47;20673;-64
2022/01/25 21:30:19;;;;;;;4.07;2.73;;;;;;;-141.38;100.00;59521.94;2623610;47;20185;-63
2022/01/25 21:32:49;;;;;;;1.87;1.70;;;;;;;-141.38;100.00;59521.94;2619422;54;20149;-63
2022/01/25 21:35:20;;;;;;;0.93;0.93;;;;;;;-141.38;100.00;59521.94;2618412;47;20169;-63
2022/01/25 21:37:50;;;;;;;2.70;1.10;;;;;;;-141.38;100.00;59521.94;2618343;54;20169;-64
2022/01/25 21:40:43;;;;;;;2.37;1.73;;;;;;;-141.38;100.00;59521.94;2618837;47;20170;-63
2022/01/25 21:43:13;;;;;;;3.73;2.77;;;;;;;-141.38;100.00;59521.94;2619060;39;20660;-64
2022/01/25 21:45:44;;;;;;;1.87;1.53;;;;;;;-141.38;100.00;59521.94;2618525;54;20161;-63
2022/01/25 21:48:15;;;;;;;2.97;2.60;;;;;;;-141.38;100.00;59521.94;2621911;47;20177;-64
2022/01/25 21:50:45;;;;;;;4.40;2.53;;;;;;;-141.38;100.00;59521.94;2619286;47;20169;-63
2022/01/25 21:53:16;;;;;;;1.60;1.27;;;;;;;-141.38;100.00;59521.94;2618348;47;20173;-63
2022/01/25 21:55:49;;;;;;;2.23;1.50;;;;;;;-141.38;100.00;59521.94;2618556;47;20184;-64
2022/01/25 21:58:19;;;;;;;2.03;1.77;;;;;;;-141.38;100.00;59521.94;2618667;47;20181;-65
2022/01/25 22:00:51;;;;;;;1.00;0.97;;;;;;;-141.38;100.00;59521.94;2619792;47;20697;-65
2022/01/25 22:03:26;;;;;;;5.13;2.10;;;;;;;-141.38;100.00;59521.94;2619362;47;20176;-64
2022/01/25 22:06:00;;;;;;;1.10;0.83;;;;;;;-141.38;100.00;59521.94;2620063;54;20171;-64
2022/01/25 22:08:35;;;;;;;3.30;2.20;;;;;;;-141.38;100.00;59521.94;2619314;54;20715;-63
2022/01/25 22:11:12;;;;;;;1.40;1.27;;;;;;;-141.38;100.00;59521.94;2618974;47;20165;-64
2022/01/25 22:13:56;;;;;;;6.30;3.57;;;;;;;-141.38;100.00;59521.94;2623952;39;20572;-63
2022/01/25 22:16:26;;;;;;;6.97;4.43;;;;;;;-141.38;100.00;59521.94;2623145;47;20769;-63
2022/01/25 22:18:58;;;;;;;7.83;2.90;;;;;;;-141.38;100.00;59521.94;2619189;47;20169;-64
2022/01/25 22:21:28;;;;;;;3.50;1.80;;;;;;;-141.38;100.00;59521.94;2618336;54;20170;-63
2022/01/25 22:24:00;;;;;;;4.47;3.90;;;;;;;-141.38;100.00;59521.94;2619573;47;20257;-63
2022/01/25 22:26:34;;;;;;;7.77;2.40;;;;;;;-141.38;100.00;59521.94;2622084;47;20165;-63
2022/01/25 22:29:04;;;;;;;2.93;1.30;;;;;;;-141.38;100.00;59521.94;2624837;54;20166;-62
2022/01/25 22:31:34;;;;;;;1.80;1.70;;;;;;;-141.38;100.00;59521.94;2625192;47;20165;-62
2022/01/25 22:34:05;;;;;;;3.30;2.70;;;;;;;-141.38;100.00;59521.94;2624825;47;20232;-62
2022/01/25 22:36:36;;;;;;;2.50;2.27;;;;;;;-141.38;100.00;59521.94;2625426;47;20737;-63
2022/01/25 22:39:06;;;;;;;0.00;0.00;;;;;;;-141.38;100.00;59521.94;2623528;54;20174;-62
2022/01/25 22:41:39;;;;;;;0.40;0.40;;;;;;;-141.38;100.00;59521.94;2621375;47;20173;-63
2022/01/25 22:44:11;;;;;;;2.77;2.50;;;;;;;-141.38;100.00;59521.94;2619307;47;20161;-63
2022/01/25 22:46:59;;;;;;;2.70;1.17;;;;;;;-141.38;100.00;59521.94;2619033;54;20180;-63
2022/01/25 22:49:43;;;;;;;1.83;1.07;;;;;;;-141.38;100.00;59521.94;2623955;47;20177;-64
2022/01/25 22:52:17;;;;;;;1.50;0.97;;;;;;;-141.38;100.00;59521.94;2622392;54;20257;-64
2022/01/25 22:54:47;;;;;;;1.03;1.03;;;;;;;-141.38;100.00;59521.94;2624815;54;20173;-64
2022/01/25 22:57:22;;;;;;;1.53;1.20;;;;;;;-141.38;100.00;59521.94;2625360;54;20164;-64
2022/01/25 22:59:52;;;;;;;2.13;2.00;;;;;;;-141.38;100.00;59521.94;2625163;54;20161;-64
2022/01/25 23:02:25;;;;;;;2.33;2.20;;;;;;;-141.38;100.00;59521.94;2625212;54;20162;-64
2022/01/25 23:04:57;;;;;;;2.83;1.53;;;;;;;-141.38;100.00;59521.94;2624436;47;20166;-64
2022/01/25 23:07:34;;;;;;;5.17;3.10;;;;;;;-141.38;100.00;59521.94;2624756;47;20161;-64
2022/01/25 23:10:04;;;;;;;2.27;2.00;;;;;;;-141.38;100.00;59521.94;2622851;46;20177;-64
2022/01/25 23:15:22;;;;;;;4.03;2.73;;;;;;;-141.38;100.00;59521.94;2619064;47;20173;-64
2022/01/25 23:17:57;;;;;;;2.47;2.27;;;;;;;-141.38;100.00;59521.94;2618514;54;20235;-64
2022/01/25 23:20:28;;;;;;;4.90;2.77;;;;;;;-141.38;100.00;59521.94;2619244;47;20156;-63
2022/01/25 23:22:58;;;;;;;2.63;0.97;;;;;;;-141.38;100.00;59521.94;2626726;54;20234;-64
2022/01/25 23:25:31;;;;;;;3.33;2.30;;;;;;;-141.38;100.00;59521.94;2626002;47;20173;-64
2022/01/25 23:28:07;;;;;;;2.23;1.90;;;;;;;-141.38;100.00;59521.94;2624411;47;20150;-64
2022/01/25 23:30:48;;;;;;;0.63;0.63;;;;;;;-141.38;100.00;59521.94;2619217;47;20153;-63
2022/01/25 23:33:30;;;;;;;4.70;2.63;;;;;;;-141.38;100.00;59521.94;2619964;39;20545;-63
2022/01/25 23:36:04;;;;;;;2.00;1.80;;;;;;;-141.38;100.00;59521.94;2619232;54;20161;-63
2022/01/25 23:38:39;;;;;;;2.43;1.80;;;;;;;-141.38;100.00;59521.94;2619722;54;20163;-64
2022/01/25 23:41:16;;;;;;;0.33;0.33;;;;;;;-141.38;100.00;59521.94;2619462;47;20165;-64
2022/01/25 23:43:53;;;;;;;0.73;0.63;;;;;;;-141.38;100.00;59521.94;2623081;47;20165;-64
2022/01/25 23:46:29;;;;;;;1.80;1.53;;;;;;;-141.38;100.00;59521.94;2621652;47;20161;-64
2022/01/25 23:49:01;;;;;;;1.47;1.33;;;;;;;-141.38;100.00;59521.94;2619577;47;20161;-63
2022/01/25 23:52:02;;;;;;;0.17;0.17;;;;;;;-141.38;100.00;59521.94;2622363;47;20171;-64
